Time;durP1;ratioP1;P1;durP2;ratioP2;P2;SDS_P1;SDS_P2;PMS_P1;PMS_P2;Temp;Humidity;BMP_temperature;BMP_pressure;BME280_temperature;BME280_humidity;BME280_pressure;Samples;Min_cycle;Max_cycle;Signal;HPM_P1;HPM_P2
2023/07/17 00:01:36;;;;;;;2.88;2.10;;;22.40;73.60;;;;;;4970593;28;20045;-62
2023/07/17 00:04:02;;;;;;;2.95;1.95;;;22.30;73.40;;;;;;4968386;28;20042;-63
2023/07/17 00:06:29;;;;;;;1.88;1.77;;;22.40;73.30;;;;;;4967637;28;20454;-62
2023/07/17 00:08:54;;;;;;;3.97;2.10;;;22.40;73.30;;;;;;4970707;28;20038;-62
2023/07/17 00:11:20;;;;;;;2.20;1.88;;;22.30;73.20;;;;;;4972018;28;20499;-62
2023/07/17 00:13:46;;;;;;;2.17;1.90;;;22.30;73.30;;;;;;4969772;28;20034;-63
2023/07/17 00:16:11;;;;;;;2.30;1.90;;;22.30;73.50;;;;;;4970382;28;20068;-62
2023/07/17 00:18:38;;;;;;;3.90;1.85;;;22.30;73.90;;;;;;4965714;28;20038;-61
2023/07/17 00:21:04;;;;;;;2.33;2.10;;;22.20;74.00;;;;;;4969390;28;20257;-60
2023/07/17 00:23:30;;;;;;;1.90;1.80;;;22.20;74.20;;;;;;4972932;28;20038;-62
2023/07/17 00:25:55;;;;;;;1.90;1.80;;;22.20;74.40;;;;;;4972005;28;20304;-64
2023/07/17 00:28:21;;;;;;;2.63;1.85;;;22.20;74.60;;;;;;4969434;28;20094;-62
2023/07/17 00:30:47;;;;;;;1.92;1.83;;;22.30;74.90;;;;;;4971027;28;20038;-64
2023/07/17 00:33:13;;;;;;;2.42;1.90;;;22.20;75.70;;;;;;4970382;28;20058;-62
2023/07/17 00:35:38;;;;;;;1.95;1.83;;;22.30;74.90;;;;;;4971046;28;20058;-63
2023/07/17 00:38:07;;;;;;;3.35;1.92;;;22.30;74.90;;;;;;4969758;28;20086;-62
2023/07/17 00:40:34;;;;;;;4.80;2.05;;;22.30;75.70;;;;;;4968645;28;20200;-63
2023/07/17 00:43:00;;;;;;;1.83;1.70;;;22.30;74.90;;;;;;4967059;28;20031;-62
2023/07/17 00:45:30;;;;;;;5.13;2.20;;;22.30;74.70;;;;;;4966332;28;20517;-63
2023/07/17 00:47:57;;;;;;;3.95;2.20;;;22.30;74.80;;;;;;4974701;28;20141;-63
2023/07/17 00:50:22;;;;;;;1.90;1.75;;;22.40;74.70;;;;;;4974936;28;20102;-62
2023/07/17 00:52:48;;;;;;;1.55;1.45;;;22.40;74.60;;;;;;4974639;28;20117;-62
2023/07/17 00:55:14;;;;;;;3.17;1.80;;;22.40;74.70;;;;;;4975551;28;20038;-62
2023/07/17 00:57:41;;;;;;;2.42;2.00;;;22.40;74.70;;;;;;4974984;28;20038;-62
2023/07/17 01:00:08;;;;;;;2.00;1.70;;;22.50;74.60;;;;;;4975431;28;20664;-63
2023/07/17 01:02:37;;;;;;;3.22;1.75;;;22.40;74.40;;;;;;4970463;28;20049;-62
2023/07/17 01:05:03;;;;;;;3.25;1.80;;;22.40;74.50;;;;;;4971073;28;20510;-62
2023/07/17 01:07:29;;;;;;;3.88;1.90;;;22.40;74.20;;;;;;4971277;28;20050;-63
2023/07/17 01:09:54;;;;;;;2.03;1.85;;;22.40;74.20;;;;;;4968840;28;20038;-63
2023/07/17 01:12:20;;;;;;;1.80;1.60;;;22.40;74.40;;;;;;4974216;28;20112;-62
2023/07/17 01:14:47;;;;;;;1.98;1.88;;;22.40;74.70;;;;;;4971657;28;20569;-62
2023/07/17 01:17:12;;;;;;;2.92;1.95;;;22.40;74.70;;;;;;4972659;28;20047;-63
2023/07/17 01:19:38;;;;;;;2.72;1.75;;;22.40;74.50;;;;;;4972312;28;20093;-63
2023/07/17 01:22:13;;;;;;;3.30;2.15;;;22.40;74.40;;;;;;4971611;28;20045;-61
2023/07/17 01:24:39;;;;;;;2.25;1.95;;;22.40;74.40;;;;;;4968273;28;20065;-62
2023/07/17 01:27:04;;;;;;;2.33;1.83;;;22.30;74.40;;;;;;4969709;28;20121;-63
2023/07/17 01:29:30;;;;;;;3.50;2.17;;;22.30;74.40;;;;;;4976090;28;20027;-62
2023/07/17 01:31:56;;;;;;;2.45;1.85;;;22.30;74.60;;;;;;4972946;28;20035;-62
2023/07/17 01:34:21;;;;;;;2.47;1.95;;;22.30;74.70;;;;;;4970563;28;20031;-62
2023/07/17 01:36:47;;;;;;;2.78;2.03;;;22.30;74.70;;;;;;4968902;28;20042;-62
2023/07/17 01:39:12;;;;;;;2.60;2.10;;;22.30;74.70;;;;;;4968671;28;20067;-62
2023/07/17 01:41:38;;;;;;;2.20;1.90;;;22.30;74.40;;;;;;4969195;28;20049;-63
2023/07/17 01:44:04;;;;;;;2.20;1.73;;;22.30;74.50;;;;;;4971486;28;20170;-62
2023/07/17 01:46:29;;;;;;;2.90;2.08;;;22.20;74.20;;;;;;4970603;28;20035;-61
2023/07/17 01:48:56;;;;;;;2.83;1.92;;;22.20;74.60;;;;;;4972544;28;20042;-63
2023/07/17 01:51:21;;;;;;;2.05;1.60;;;22.20;74.70;;;;;;4971287;28;20061;-63
2023/07/17 01:53:47;;;;;;;2.47;1.90;;;22.20;75.00;;;;;;4969856;28;20600;-63
2023/07/17 01:56:12;;;;;;;2.88;2.10;;;22.20;75.10;;;;;;4970379;28;20093;-63
2023/07/17 01:58:38;;;;;;;2.22;2.10;;;22.20;75.40;;;;;;4972056;28;20119;-62
2023/07/17 02:01:03;;;;;;;3.22;2.28;;;22.20;75.60;;;;;;4972367;28;20379;-62
2023/07/17 02:03:30;;;;;;;2.92;2.08;;;22.20;75.50;;;;;;4969378;28;20035;-63
2023/07/17 02:05:56;;;;;;;2.95;2.30;;;22.20;75.80;;;;;;4972583;28;20423;-62
2023/07/17 02:08:21;;;;;;;4.28;2.05;;;22.20;75.80;;;;;;4970080;28;20047;-62
2023/07/17 02:10:49;;;;;;;5.70;2.28;;;22.10;76.00;;;;;;4970562;28;20108;-63
2023/07/17 02:13:15;;;;;;;3.10;2.55;;;22.10;76.20;;;;;;4968423;28;20249;-63
2023/07/17 02:15:41;;;;;;;4.03;2.67;;;22.10;76.10;;;;;;4969989;28;20051;-62
2023/07/17 02:18:06;;;;;;;6.60;2.78;;;22.10;77.00;;;;;;4967016;28;20038;-63
2023/07/17 02:20:32;;;;;;;4.22;2.72;;;22.10;76.20;;;;;;4969341;28;20034;-62
2023/07/17 02:22:58;;;;;;;5.60;3.03;;;22.10;76.30;;;;;;4975138;28;20042;-60
2023/07/17 02:25:23;;;;;;;6.40;2.80;;;22.10;76.30;;;;;;4972696;28;20031;-62
2023/07/17 02:27:49;;;;;;;3.95;2.65;;;22.10;76.40;;;;;;4971066;28;20549;-63
2023/07/17 02:30:15;;;;;;;3.58;2.78;;;22.10;76.60;;;;;;4971761;28;20039;-61
2023/07/17 02:32:40;;;;;;;5.68;2.65;;;22.10;76.80;;;;;;4972060;28;20027;-62
2023/07/17 02:35:06;;;;;;;4.00;2.70;;;22.20;76.80;;;;;;4972351;28;20113;-62
2023/07/17 02:37:32;;;;;;;4.82;3.10;;;22.20;76.80;;;;;;4973665;28;20056;-62
2023/07/17 02:39:58;;;;;;;3.67;2.90;;;22.20;76.60;;;;;;4973298;28;20053;-62
2023/07/17 02:42:23;;;;;;;4.47;3.00;;;22.20;76.70;;;;;;4972427;28;20498;-62
2023/07/17 02:44:49;;;;;;;5.57;3.05;;;22.20;76.90;;;;;;4972486;28;20049;-61
2023/07/17 02:47:15;;;;;;;4.57;2.58;;;22.20;77.30;;;;;;4970564;28;20038;-62
2023/07/17 02:49:41;;;;;;;3.35;2.92;;;22.20;77.70;;;;;;4972536;28;20089;-60
2023/07/17 02:52:08;;;;;;;5.07;2.53;;;22.20;78.00;;;;;;4973762;28;20131;-61
2023/07/17 02:54:36;;;;;;;5.05;2.67;;;22.10;78.30;;;;;;4972169;28;20045;-62
2023/07/17 02:57:03;;;;;;;3.38;2.17;;;22.10;78.70;;;;;;4968254;28;20117;-61
2023/07/17 02:59:29;;;;;;;4.25;2.10;;;22.10;78.50;;;;;;4972237;28;20114;-60
2023/07/17 03:01:55;;;;;;;3.72;2.63;;;22.10;78.40;;;;;;4970646;28;20061;-61
2023/07/17 03:04:20;;;;;;;3.45;2.20;;;22.00;78.50;;;;;;4972649;28;20049;-62
2023/07/17 03:06:46;;;;;;;2.33;1.77;;;22.00;78.60;;;;;;4970640;28;20043;-61
2023/07/17 03:09:12;;;;;;;6.55;2.17;;;21.90;78.70;;;;;;4969902;28;20041;-61
2023/07/17 03:11:37;;;;;;;2.75;2.40;;;21.80;78.70;;;;;;4972331;28;20061;-61
2023/07/17 03:14:03;;;;;;;3.70;2.40;;;21.80;78.70;;;;;;4973152;28;20518;-60
2023/07/17 03:16:28;;;;;;;4.25;2.30;;;21.70;78.00;;;;;;4967323;28;20034;-62
2023/07/17 03:18:54;;;;;;;3.90;2.35;;;21.70;77.50;;;;;;4970848;28;20090;-60
2023/07/17 03:21:19;;;;;;;4.38;2.47;;;21.60;77.10;;;;;;4971328;28;20147;-61
2023/07/17 03:23:45;;;;;;;4.40;2.28;;;21.50;76.90;;;;;;4971022;28;20510;-60
2023/07/17 03:26:11;;;;;;;4.78;2.38;;;21.30;77.00;;;;;;4969794;28;20053;-61
2023/07/17 03:28:37;;;;;;;4.28;2.50;;;21.20;77.30;;;;;;4971890;28;20463;-61
2023/07/17 03:31:03;;;;;;;4.22;2.90;;;21.10;77.70;;;;;;4968104;28;20034;-61
2023/07/17 03:33:30;;;;;;;5.25;2.65;;;21.00;77.90;;;;;;4985683;28;20040;-60
2023/07/17 03:35:55;;;;;;;3.08;2.28;;;20.90;78.20;;;;;;4969026;28;20030;-60
2023/07/17 03:38:21;;;;;;;4.28;2.33;;;20.90;78.40;;;;;;4970201;28;20033;-59
2023/07/17 03:40:46;;;;;;;5.05;2.22;;;20.90;78.40;;;;;;4968449;28;20050;-62
2023/07/17 03:43:12;;;;;;;3.05;2.22;;;20.80;78.70;;;;;;4967453;28;20129;-61
2023/07/17 03:45:37;;;;;;;3.15;2.35;;;20.80;79.10;;;;;;4967593;28;20045;-60
2023/07/17 03:48:03;;;;;;;5.03;2.35;;;20.70;79.30;;;;;;4967817;28;20073;-62
2023/07/17 03:50:30;;;;;;;3.80;2.35;;;20.70;79.50;;;;;;4967729;28;20356;-61
2023/07/17 03:52:56;;;;;;;3.75;2.33;;;20.70;79.70;;;;;;4969469;28;20046;-60
2023/07/17 03:55:21;;;;;;;4.55;2.45;;;20.60;79.60;;;;;;4971217;28;20114;-62
2023/07/17 03:57:48;;;;;;;4.63;2.50;;;20.70;79.80;;;;;;4967438;28;20056;-61
2023/07/17 04:00:14;;;;;;;4.28;2.35;;;20.70;80.00;;;;;;4968177;28;20026;-60
2023/07/17 04:02:41;;;;;;;3.65;2.67;;;20.70;80.30;;;;;;4969586;28;20050;-61
2023/07/17 04:05:07;;;;;;;4.38;2.22;;;20.70;80.60;;;;;;4971766;28;20038;-59
2023/07/17 04:07:33;;;;;;;3.67;2.55;;;20.70;80.60;;;;;;4971055;28;20039;-60
2023/07/17 04:09:58;;;;;;;3.88;2.47;;;20.70;80.80;;;;;;4969627;28;20034;-60
2023/07/17 04:12:24;;;;;;;5.10;2.50;;;20.60;80.80;;;;;;4969513;28;20321;-61
2023/07/17 04:14:50;;;;;;;4.15;2.30;;;20.60;80.80;;;;;;4970420;28;20487;-60
2023/07/17 04:17:15;;;;;;;4.43;2.50;;;20.60;80.80;;;;;;4969172;28;20046;-59
2023/07/17 04:19:41;;;;;;;3.40;2.15;;;20.60;80.90;;;;;;4968393;28;20107;-61
2023/07/17 04:22:06;;;;;;;3.95;2.70;;;20.70;81.00;;;;;;4971047;28;20065;-60
2023/07/17 04:24:32;;;;;;;4.20;2.78;;;20.70;81.00;;;;;;4971717;28;20045;-62
2023/07/17 04:26:58;;;;;;;4.35;2.70;;;20.70;81.20;;;;;;4969690;28;20129;-61
2023/07/17 04:29:23;;;;;;;3.38;2.50;;;20.70;81.40;;;;;;4971310;28;20521;-62
2023/07/17 04:31:49;;;;;;;3.13;2.42;;;20.70;81.30;;;;;;4969322;28;20042;-60
2023/07/17 04:34:14;;;;;;;4.85;2.50;;;20.70;81.40;;;;;;4974490;28;20463;-62
2023/07/17 04:36:40;;;;;;;3.70;2.40;;;20.70;81.50;;;;;;4973439;28;20534;-59
2023/07/17 04:39:06;;;;;;;4.88;2.55;;;20.70;81.30;;;;;;4971643;28;20066;-60
2023/07/17 04:41:32;;;;;;;4.13;2.55;;;20.80;81.50;;;;;;4972376;28;20092;-61
2023/07/17 04:43:57;;;;;;;3.90;2.65;;;20.80;81.40;;;;;;4979462;28;20038;-61
2023/07/17 04:46:24;;;;;;;6.30;2.67;;;20.80;81.30;;;;;;4976638;28;20076;-60
2023/07/17 04:48:49;;;;;;;3.88;2.15;;;20.80;81.20;;;;;;4972945;28;20073;-60
2023/07/17 04:51:15;;;;;;;3.25;2.60;;;20.80;81.20;;;;;;4972264;28;20515;-61
2023/07/17 04:53:41;;;;;;;3.58;2.80;;;20.80;81.10;;;;;;4974806;28;20047;-59
2023/07/17 04:56:06;;;;;;;4.72;2.63;;;20.80;81.20;;;;;;4976468;28;20399;-60
2023/07/17 04:58:32;;;;;;;2.92;2.28;;;20.90;81.00;;;;;;4973089;28;20041;-60
2023/07/17 05:00:59;;;;;;;2.95;2.33;;;20.90;80.80;;;;;;4970407;28;20105;-60
2023/07/17 05:03:24;;;;;;;3.53;2.20;;;20.90;80.80;;;;;;4974225;28;20081;-60
2023/07/17 05:05:50;;;;;;;3.00;2.55;;;20.90;80.80;;;;;;4971586;28;20030;-59
2023/07/17 05:08:19;;;;;;;3.72;2.10;;;20.90;80.90;;;;;;4973842;28;20038;-60
2023/07/17 05:10:58;;;;;;;3.47;2.25;;;20.90;80.90;;;;;;4975355;28;20034;-59
2023/07/17 05:13:24;;;;;;;4.25;2.40;;;20.90;81.00;;;;;;4973160;28;20617;-61
2023/07/17 05:15:50;;;;;;;4.60;2.25;;;21.00;80.70;;;;;;4974060;28;20049;-60
2023/07/17 05:18:16;;;;;;;4.80;2.50;;;20.90;80.50;;;;;;4975166;28;20031;-60
2023/07/17 05:20:49;;;;;;;6.78;2.47;;;21.00;80.50;;;;;;4976135;28;20490;-59
2023/07/17 05:23:15;;;;;;;3.95;2.58;;;21.00;80.80;;;;;;4972414;28;20066;-60
2023/07/17 05:25:50;;;;;;;7.07;2.50;;;21.10;80.50;;;;;;4974868;28;20050;-60
2023/07/17 05:28:15;;;;;;;;;;;21.10;80.50;;;;;;4971903;28;20414;-59
2023/07/17 05:30:41;;;;;;;3.25;2.30;;;21.10;80.20;;;;;;4971484;28;19921;-60
2023/07/17 05:33:06;;;;;;;3.30;2.40;;;21.20;80.10;;;;;;4971237;28;20078;-60
2023/07/17 05:35:32;;;;;;;5.00;2.33;;;21.20;79.90;;;;;;4968751;28;20363;-60
2023/07/17 05:37:57;;;;;;;6.15;2.28;;;21.20;79.70;;;;;;4971515;28;20043;-58
2023/07/17 05:40:23;;;;;;;3.42;2.22;;;21.30;79.60;;;;;;4971615;28;20390;-61
2023/07/17 05:42:48;;;;;;;5.13;2.40;;;21.30;79.40;;;;;;4968569;28;20038;-61
2023/07/17 05:45:14;;;;;;;4.25;2.58;;;21.30;79.60;;;;;;4968511;28;20129;-60
2023/07/17 05:47:41;;;;;;;5.68;2.13;;;21.30;79.80;;;;;;4973567;28;20537;-59
2023/07/17 05:50:07;;;;;;;5.25;2.60;;;21.30;79.60;;;;;;4973613;28;20039;-59
2023/07/17 05:52:33;;;;;;;2.72;2.40;;;21.40;79.60;;;;;;4969768;28;20589;-62
2023/07/17 05:54:58;;;;;;;2.40;2.20;;;21.40;79.70;;;;;;4972264;28;20054;-62
2023/07/17 05:57:24;;;;;;;3.83;2.13;;;21.50;80.00;;;;;;4975388;28;20562;-61
2023/07/17 05:59:49;;;;;;;2.88;2.22;;;21.50;80.00;;;;;;4973357;28;20043;-61
2023/07/17 06:02:15;;;;;;;4.15;2.38;;;21.60;80.00;;;;;;4972506;28;20031;-61
2023/07/17 06:04:41;;;;;;;5.55;2.10;;;21.60;80.00;;;;;;4968552;28;20053;-61
2023/07/17 06:07:07;;;;;;;4.40;2.10;;;21.60;79.80;;;;;;4968844;28;20414;-62
2023/07/17 06:09:35;;;;;;;4.10;2.38;;;21.70;79.80;;;;;;4969020;28;20124;-62
2023/07/17 06:12:01;;;;;;;3.78;2.40;;;21.70;79.80;;;;;;4971053;28;20043;-62
2023/07/17 06:14:27;;;;;;;3.75;2.33;;;21.80;79.80;;;;;;4969429;28;20047;-62
2023/07/17 06:16:52;;;;;;;3.22;2.45;;;21.90;79.60;;;;;;4971174;28;20038;-62
2023/07/17 06:19:18;;;;;;;3.45;2.47;;;21.90;79.80;;;;;;4972127;28;20035;-63
2023/07/17 06:21:44;;;;;;;2.90;2.22;;;21.90;79.30;;;;;;4968496;28;20023;-62
2023/07/17 06:24:10;;;;;;;2.63;2.42;;;21.90;78.90;;;;;;4973649;28;20034;-62
2023/07/17 06:26:36;;;;;;;4.25;2.42;;;22.00;78.90;;;;;;4974261;28;20525;-61
2023/07/17 06:29:05;;;;;;;3.97;2.70;;;22.00;79.10;;;;;;4973634;28;20065;-62
2023/07/17 06:31:31;;;;;;;3.75;2.50;;;22.10;80.10;;;;;;4971758;28;20047;-62
2023/07/17 06:33:57;;;;;;;3.85;2.35;;;22.10;79.30;;;;;;4970586;28;20042;-62
2023/07/17 06:36:22;;;;;;;4.30;2.50;;;22.10;79.20;;;;;;4977638;28;20403;-60
2023/07/17 06:38:48;;;;;;;4.72;2.30;;;22.20;79.20;;;;;;4977873;28;20469;-62
2023/07/17 06:41:14;;;;;;;3.50;2.65;;;22.20;79.00;;;;;;4978308;28;20060;-62
2023/07/17 06:43:40;;;;;;;3.83;2.40;;;22.20;78.80;;;;;;4978189;28;20119;-61
2023/07/17 06:46:05;;;;;;;3.28;2.40;;;22.30;79.10;;;;;;4974603;28;20046;-62
2023/07/17 06:48:31;;;;;;;4.38;2.83;;;22.30;79.40;;;;;;4968126;28;20428;-61
2023/07/17 06:50:57;;;;;;;3.85;2.75;;;22.30;79.20;;;;;;4967414;28;20042;-62
2023/07/17 06:53:22;;;;;;;4.57;2.63;;;22.30;79.10;;;;;;4967265;28;20089;-63
2023/07/17 06:55:59;;;;;;;4.30;2.67;;;22.30;79.30;;;;;;4972272;28;20422;-62
2023/07/17 06:58:25;;;;;;;5.57;2.70;;;22.40;79.80;;;;;;4972417;28;20481;-61
2023/07/17 07:00:58;;;;;;;2.95;2.55;;;22.40;79.40;;;;;;4968846;28;20034;-61
2023/07/17 07:03:26;;;;;;;5.13;2.85;;;22.40;79.40;;;;;;4968876;28;20101;-60
2023/07/17 07:06:04;;;;;;;3.30;2.55;;;22.50;79.30;;;;;;4968467;28;20402;-62
2023/07/17 07:08:31;;;;;;;3.45;2.35;;;22.50;79.60;;;;;;4968369;28;20161;-62
2023/07/17 07:10:58;;;;;;;4.75;2.72;;;22.60;79.60;;;;;;4969909;28;20066;-62
2023/07/17 07:13:24;;;;;;;2.78;2.45;;;22.60;79.70;;;;;;4973185;28;20039;-63
2023/07/17 07:15:50;;;;;;;3.70;2.63;;;22.70;79.60;;;;;;4968256;28;20037;-61
2023/07/17 07:18:17;;;;;;;2.95;2.38;;;22.80;79.40;;;;;;4967805;28;20038;-60
2023/07/17 07:20:44;;;;;;;5.65;2.65;;;22.90;79.00;;;;;;4972160;28;20043;-63
2023/07/17 07:23:10;;;;;;;3.33;2.50;;;22.90;78.50;;;;;;4971326;28;20571;-62
2023/07/17 07:25:36;;;;;;;3.58;2.17;;;23.00;77.30;;;;;;4975310;28;20144;-61
2023/07/17 07:28:02;;;;;;;2.30;2.10;;;23.00;76.80;;;;;;4974074;28;20046;-63
2023/07/17 07:30:28;;;;;;;3.85;2.33;;;23.10;76.00;;;;;;4972690;28;20073;-62
2023/07/17 07:32:53;;;;;;;4.75;2.40;;;23.20;75.30;;;;;;4972809;28;20411;-62
2023/07/17 07:35:19;;;;;;;3.47;2.63;;;23.20;75.10;;;;;;4974264;28;20117;-62
2023/07/17 07:37:45;;;;;;;4.13;2.38;;;23.30;75.00;;;;;;4972621;28;20239;-63
2023/07/17 07:40:12;;;;;;;5.03;2.40;;;23.30;73.70;;;;;;4962046;28;20035;-64
2023/07/17 07:42:41;;;;;;;4.32;2.17;;;23.40;70.80;;;;;;4964162;28;20409;-64
2023/07/17 07:45:08;;;;;;;3.63;2.20;;;23.40;69.70;;;;;;4967286;28;20045;-64
2023/07/17 07:47:33;;;;;;;3.90;2.20;;;23.40;69.60;;;;;;4973824;28;20133;-63
2023/07/17 07:49:59;;;;;;;2.60;2.22;;;23.40;68.80;;;;;;4971838;28;20121;-63
2023/07/17 07:52:25;;;;;;;3.90;2.20;;;23.50;68.50;;;;;;4967906;28;20034;-64
2023/07/17 07:54:51;;;;;;;3.97;2.40;;;23.60;68.00;;;;;;4968139;28;20041;-63
2023/07/17 07:57:16;;;;;;;5.70;2.50;;;23.60;68.00;;;;;;4968521;28;20093;-62
2023/07/17 07:59:42;;;;;;;5.72;2.42;;;23.60;67.80;;;;;;4974746;28;20042;-63
2023/07/17 08:02:09;;;;;;;4.45;2.30;;;23.70;67.00;;;;;;4964279;28;20573;-64
2023/07/17 08:04:35;;;;;;;3.15;2.22;;;23.70;66.30;;;;;;4971799;28;21763;-63
2023/07/17 08:07:00;;;;;;;4.72;2.40;;;23.80;65.70;;;;;;4973403;28;20452;-63
2023/07/17 08:09:26;;;;;;;5.50;2.38;;;23.80;66.20;;;;;;4971545;28;20043;-63
2023/07/17 08:11:52;;;;;;;4.28;2.15;;;23.90;65.80;;;;;;4971067;28;20035;-63
2023/07/17 08:14:20;;;;;;;2.65;2.20;;;23.90;65.60;;;;;;4973624;28;20027;-63
2023/07/17 08:16:47;;;;;;;4.72;2.40;;;24.10;65.90;;;;;;4963412;28;20089;-62
2023/07/17 08:19:12;;;;;;;4.97;2.55;;;24.10;64.40;;;;;;4968859;28;20118;-63
2023/07/17 08:21:38;;;;;;;4.10;2.30;;;24.20;64.00;;;;;;4967739;28;20125;-63
2023/07/17 08:24:04;;;;;;;3.53;2.33;;;24.30;62.70;;;;;;4965825;28;20116;-61
2023/07/17 08:26:30;;;;;;;3.88;2.47;;;24.30;62.90;;;;;;4962725;28;20028;-64
2023/07/17 08:28:55;;;;;;;4.20;2.25;;;24.30;63.10;;;;;;4971190;28;20138;-64
2023/07/17 08:31:21;;;;;;;4.90;2.25;;;24.30;63.60;;;;;;4964961;28;20046;-64
2023/07/17 08:33:46;;;;;;;2.78;2.10;;;24.30;63.80;;;;;;4968331;28;20031;-61
2023/07/17 08:36:12;;;;;;;5.35;2.38;;;24.40;64.60;;;;;;4969712;28;20457;-61
2023/07/17 08:38:38;;;;;;;4.15;2.53;;;24.40;64.30;;;;;;4969912;28;20043;-62
2023/07/17 08:41:03;;;;;;;2.75;2.17;;;24.40;64.10;;;;;;4967163;28;20039;-63
2023/07/17 08:43:29;;;;;;;3.65;2.10;;;24.50;63.80;;;;;;4965036;28;20452;-62
2023/07/17 08:45:55;;;;;;;3.80;2.47;;;24.60;63.80;;;;;;4966222;28;20678;-63
2023/07/17 08:48:22;;;;;;;2.67;2.13;;;24.60;63.30;;;;;;4967168;28;20503;-61
2023/07/17 08:50:50;;;;;;;4.68;2.28;;;24.70;63.50;;;;;;4971153;28;20121;-63
2023/07/17 08:53:17;;;;;;;3.38;2.40;;;24.70;63.10;;;;;;4971556;28;20030;-62
2023/07/17 08:55:43;;;;;;;5.90;2.47;;;24.80;62.60;;;;;;4973378;28;20090;-63
2023/07/17 08:58:10;;;;;;;4.10;2.30;;;25.00;62.70;;;;;;4975510;28;20275;-64
2023/07/17 09:00:36;;;;;;;3.85;2.50;;;25.00;62.70;;;;;;4972448;28;20069;-62
2023/07/17 09:03:02;;;;;;;3.70;2.20;;;25.10;62.60;;;;;;4973438;28;20065;-63
2023/07/17 09:05:28;;;;;;;3.20;2.38;;;25.20;62.30;;;;;;4974774;28;20034;-61
2023/07/17 09:07:53;;;;;;;3.05;2.60;;;25.30;62.30;;;;;;4975237;28;20098;-62
2023/07/17 09:10:19;;;;;;;2.83;2.22;;;25.30;61.80;;;;;;4977530;28;20042;-63
2023/07/17 09:12:56;;;;;;;4.15;2.63;;;25.40;61.60;;;;;;4973124;28;20395;-62
2023/07/17 09:15:23;;;;;;;3.03;2.17;;;25.40;61.90;;;;;;4974086;28;20055;-61
2023/07/17 09:17:49;;;;;;;3.03;2.35;;;25.50;61.70;;;;;;4973930;28;20040;-64
2023/07/17 09:20:16;;;;;;;4.20;2.45;;;25.50;61.80;;;;;;4973239;28;20031;-63
2023/07/17 09:22:42;;;;;;;4.63;2.40;;;25.50;61.70;;;;;;4973373;28;20489;-63
2023/07/17 09:25:09;;;;;;;4.20;2.70;;;25.50;61.70;;;;;;4975861;28;20054;-64
2023/07/17 09:27:46;;;;;;;3.33;2.40;;;25.60;62.00;;;;;;4976876;28;20044;-62
2023/07/17 09:30:16;;;;;;;3.08;2.25;;;25.70;60.40;;;;;;4978001;28;20035;-62
2023/07/17 09:32:43;;;;;;;3.75;2.40;;;25.90;60.70;;;;;;4979276;28;20027;-63
2023/07/17 09:35:12;;;;;;;2.92;2.53;;;25.90;59.80;;;;;;4977003;28;20089;-63
2023/07/17 09:37:41;;;;;;;3.83;2.60;;;26.00;60.60;;;;;;4978521;28;20058;-64
2023/07/17 09:40:07;;;;;;;4.20;2.42;;;26.00;59.20;;;;;;4979257;28;20117;-64
2023/07/17 09:42:37;;;;;;;5.20;2.53;;;26.00;58.50;;;;;;4977104;28;20430;-64
2023/07/17 09:45:03;;;;;;;5.60;2.60;;;26.10;58.30;;;;;;4978437;28;20050;-61
2023/07/17 09:47:31;;;;;;;2.88;1.95;;;26.10;57.70;;;;;;4978077;28;20027;-63
2023/07/17 09:49:58;;;;;;;4.45;2.10;;;26.20;57.50;;;;;;4975795;28;20406;-63
2023/07/17 09:52:24;;;;;;;4.32;2.83;;;26.20;57.70;;;;;;4977906;28;20057;-64
2023/07/17 09:54:51;;;;;;;4.00;2.20;;;26.30;57.10;;;;;;4974497;28;20502;-63
2023/07/17 09:57:27;;;;;;;3.05;2.30;;;26.40;57.60;;;;;;4975729;28;20045;-63
2023/07/17 09:59:55;;;;;;;3.63;2.33;;;26.50;56.20;;;;;;4976398;28;20474;-63
2023/07/17 10:02:23;;;;;;;5.55;2.80;;;26.60;56.20;;;;;;4979377;28;20046;-64
2023/07/17 10:04:53;;;;;;;3.45;2.10;;;26.70;56.30;;;;;;4979125;28;20383;-64
2023/07/17 10:07:19;;;;;;;3.08;2.00;;;26.80;56.40;;;;;;4979557;28;20034;-63
2023/07/17 10:09:48;;;;;;;3.40;2.30;;;26.90;56.70;;;;;;4979274;28;20031;-64
2023/07/17 10:12:15;;;;;;;3.00;2.20;;;26.90;56.10;;;;;;4982010;28;20023;-64
2023/07/17 10:14:42;;;;;;;4.57;2.13;;;27.00;55.60;;;;;;4979748;28;20599;-63
2023/07/17 10:17:34;;;;;;;2.83;2.28;;;27.00;55.00;;;;;;4977960;28;20041;-62
2023/07/17 10:20:08;;;;;;;2.85;2.40;;;27.10;52.80;;;;;;4976543;28;20030;-63
2023/07/17 10:22:38;;;;;;;4.07;2.55;;;27.10;53.50;;;;;;4975917;28;20129;-63
2023/07/17 10:25:09;;;;;;;4.15;2.08;;;27.10;54.00;;;;;;4977634;28;20447;-64
2023/07/17 10:27:37;;;;;;;2.60;2.35;;;27.20;53.50;;;;;;4977465;28;20062;-64
2023/07/17 10:30:21;;;;;;;2.85;2.17;;;27.10;54.10;;;;;;4977395;28;20046;-63
2023/07/17 10:32:46;;;;;;;3.10;2.05;;;27.20;53.30;;;;;;4975620;28;20038;-63
2023/07/17 10:35:21;;;;;;;2.53;1.95;;;27.30;54.30;;;;;;4976744;28;20041;-63
2023/07/17 10:37:46;;;;;;;2.70;2.22;;;27.40;53.50;;;;;;4976462;28;20033;-64
2023/07/17 10:40:27;;;;;;;2.63;2.38;;;27.40;53.20;;;;;;4976924;28;20047;-64
2023/07/17 10:42:52;;;;;;;5.72;2.22;;;27.40;48.20;;;;;;4976472;28;20034;-64
2023/07/17 10:45:18;;;;;;;2.50;2.00;;;27.40;51.00;;;;;;4976842;28;20043;-63
2023/07/17 10:47:49;;;;;;;4.05;2.10;;;27.40;50.30;;;;;;4975998;28;20054;-63
2023/07/17 10:50:17;;;;;;;2.70;2.05;;;27.30;49.50;;;;;;4977603;28;20039;-64
2023/07/17 10:52:42;;;;;;;2.40;2.20;;;27.30;50.60;;;;;;4975222;28;20403;-64
2023/07/17 10:55:08;;;;;;;4.32;2.47;;;27.30;50.90;;;;;;4976847;28;20089;-63
2023/07/17 10:57:36;;;;;;;3.50;2.00;;;27.30;50.30;;;;;;4976965;28;20046;-63
2023/07/17 11:00:03;;;;;;;2.97;1.98;;;27.30;50.50;;;;;;4975505;28;20034;-64
2023/07/17 11:02:28;;;;;;;3.20;2.30;;;27.30;52.00;;;;;;4977417;28;20125;-63
2023/07/17 11:04:57;;;;;;;3.08;2.10;;;27.30;51.80;;;;;;4976023;28;20126;-64
2023/07/17 11:07:23;;;;;;;2.65;1.80;;;27.40;51.50;;;;;;4978362;28;20091;-64
2023/07/17 11:09:49;;;;;;;2.28;1.75;;;27.50;50.90;;;;;;4978813;28;20111;-64
2023/07/17 11:12:16;;;;;;;3.30;2.28;;;27.60;51.00;;;;;;4979889;28;20030;-64
2023/07/17 11:14:42;;;;;;;5.40;2.28;;;27.70;50.80;;;;;;4969575;28;20030;-64
2023/07/17 11:17:11;;;;;;;2.83;2.20;;;27.70;50.90;;;;;;4975825;28;20153;-64
2023/07/17 11:19:37;;;;;;;2.80;2.55;;;27.80;50.20;;;;;;4973454;28;20126;-63
2023/07/17 11:22:02;;;;;;;2.88;2.35;;;27.90;50.40;;;;;;4973888;28;20122;-63
2023/07/17 11:24:28;;;;;;;3.88;2.17;;;27.90;50.70;;;;;;4975436;28;20070;-64
2023/07/17 11:26:54;;;;;;;2.60;2.10;;;28.00;50.70;;;;;;4977086;28;20039;-64
2023/07/17 11:29:20;;;;;;;2.88;2.03;;;28.00;50.60;;;;;;4977542;28;20042;-64
2023/07/17 11:31:46;;;;;;;2.72;1.85;;;28.10;50.90;;;;;;4976612;28;20030;-64
2023/07/17 11:34:11;;;;;;;3.22;2.17;;;28.20;50.60;;;;;;4974713;28;20046;-64
2023/07/17 11:36:43;;;;;;;3.67;2.08;;;28.30;50.40;;;;;;4975021;28;20042;-63
2023/07/17 11:39:14;;;;;;;3.15;2.30;;;28.30;50.00;;;;;;4976065;28;20043;-65
2023/07/17 11:41:54;;;;;;;3.67;2.22;;;28.40;50.10;;;;;;4973202;28;20045;-65
2023/07/17 11:44:24;;;;;;;2.30;1.95;;;28.50;50.10;;;;;;4974851;28;20031;-64
2023/07/17 11:46:57;;;;;;;3.08;2.20;;;28.50;49.30;;;;;;4973337;28;20030;-65
2023/07/17 11:49:26;;;;;;;4.50;2.05;;;28.50;49.10;;;;;;4974505;28;20062;-64
2023/07/17 11:51:55;;;;;;;2.70;2.00;;;28.50;49.20;;;;;;4974590;28;20034;-64
2023/07/17 11:54:21;;;;;;;3.60;2.45;;;28.60;49.60;;;;;;4976539;28;20062;-64
2023/07/17 11:56:47;;;;;;;4.47;2.38;;;28.60;49.10;;;;;;4975739;28;20077;-64
2023/07/17 11:59:16;;;;;;;2.42;2.00;;;28.60;49.00;;;;;;4976322;28;20030;-63
2023/07/17 12:01:41;;;;;;;4.85;2.30;;;28.60;48.50;;;;;;4975111;28;20035;-65
2023/07/17 12:04:27;;;;;;;2.67;2.20;;;28.60;48.50;;;;;;4971395;28;20050;-64
2023/07/17 12:06:53;;;;;;;2.70;1.92;;;28.70;48.50;;;;;;4971489;28;20059;-64
2023/07/17 12:09:19;;;;;;;2.70;1.92;;;28.70;48.70;;;;;;4974818;28;20034;-64
2023/07/17 12:11:45;;;;;;;4.07;1.98;;;28.70;48.80;;;;;;4972898;28;20463;-63
2023/07/17 12:14:14;;;;;;;3.53;2.03;;;28.70;48.40;;;;;;4968336;28;22087;-63
2023/07/17 12:16:39;;;;;;;2.78;2.15;;;28.70;48.80;;;;;;4975991;28;20042;-63
2023/07/17 12:19:05;;;;;;;3.35;1.83;;;28.80;48.60;;;;;;4967343;28;20088;-63
2023/07/17 12:21:32;;;;;;;4.22;2.05;;;28.80;49.00;;;;;;4971905;28;20038;-64
2023/07/17 12:23:57;;;;;;;6.40;2.13;;;28.80;48.30;;;;;;4967664;28;20038;-64
2023/07/17 12:26:23;;;;;;;4.35;2.53;;;28.80;48.60;;;;;;4968641;28;20109;-64
2023/07/17 12:28:48;;;;;;;2.42;2.22;;;28.80;48.20;;;;;;4966351;28;20126;-65
2023/07/17 12:31:14;;;;;;;4.82;2.30;;;28.90;48.10;;;;;;4971479;28;20042;-64
2023/07/17 12:33:39;;;;;;;4.80;2.45;;;28.90;47.40;;;;;;4976469;28;20042;-63
2023/07/17 12:36:05;;;;;;;4.78;2.25;;;29.00;48.00;;;;;;4975552;28;20034;-64
2023/07/17 12:38:31;;;;;;;3.30;2.08;;;29.00;47.50;;;;;;4975980;28;20035;-64
2023/07/17 12:40:56;;;;;;;2.88;2.10;;;29.00;47.90;;;;;;4974973;28;20511;-63
2023/07/17 12:43:22;;;;;;;6.32;2.28;;;29.00;48.00;;;;;;4976035;28;20085;-63
2023/07/17 12:45:47;;;;;;;3.80;2.20;;;29.00;48.20;;;;;;4974043;28;20035;-64